Ridgefield, WA (98642)

8:57 AM PDT on July 24, 2016 (GMT -0700)
Duluth | | Change Station

Elev 285 ft 45.80 °N, 122.65 °W | Updated 36 seconds ago

Clear
Clear
70.0 °F
Feels Like 70.0 °F
N
2.2
Wind Variable Wind from NNW

Today
High -- | Low -- °F
--% Chance of Precip.
Yesterday
High -- | Low -- °F
Precip. -- in
Pressure 30.10 in
Visibility 10.0 miles
Clouds Clear
Dew Point 57 °F
Humidity 64%
Rainfall 0.00 in
Snow Depth Not available.
5:45 AM 8:48 PM
Waning Gibbous, 75% visible
METAR KSPB 241553Z AUTO 36011KT 10SM CLR 18/12 A3010 RMK AO2 SLP192 T01780122
Pressure 30.10 in
Visibility 10.0 miles
Clouds Clear
Dew Point 57 °F
Humidity 64%
Rainfall 0.00 in
Snow Depth Not available.
5:45 AM 8:48 PM
Waning Gibbous, 75% visible
METAR KSPB 241553Z AUTO 36011KT 10SM CLR 18/12 A3010 RMK AO2 SLP192 T01780122

10-Day Weather Forecast

Almanac

Astronomy

Jul. 24, 2016 Rise Set
Actual Time
Civil Twilight
Nautical Twilight
Astronomical Twilight
Moon
Length of Visible Light
Length of Day
Tomorrow will be .
, % of the Moon is Illuminated

Today's Extremes

State Highs State Lows

Community

WunderPhotos

Upload Photos

1,927,092 photos uploaded!

WunderBlog® & News

Nearby

Air Quality

  Air Quality AQ Index Pollutant
Not available.

Snow Depth

Station Depth Elevation

Earthquake Activity

City Distance Mag. Time & Date
Minimum magnitude displayed is 2.5.

Coastal Water Temperatures

Place Temperature

Stations

Nearby Weather Stations

Station Location Temp. Windchill Dew Point Humidity Wind Precip. Elev Updated Type
                   

Watches & Warnings

There are currently no watches in effect.